sensor_id;sensor_type;location;lat;lon;timestamp;temperature;humidity
909;DHT22;441;51.192;6.788;2022-12-29T00:00:18;23.30;59.50
909;DHT22;441;51.192;6.788;2022-12-29T00:02:46;23.30;58.60
909;DHT22;441;51.192;6.788;2022-12-29T00:05:13;23.10;58.40
909;DHT22;441;51.192;6.788;2022-12-29T00:07:40;23.00;58.70
909;DHT22;441;51.192;6.788;2022-12-29T00:10:07;22.90;59.10
909;DHT22;441;51.192;6.788;2022-12-29T00:12:34;22.80;59.20
909;DHT22;441;51.192;6.788;2022-12-29T00:15:18;22.70;59.10
909;DHT22;441;51.192;6.788;2022-12-29T00:18:05;22.70;59.20
909;DHT22;441;51.192;6.788;2022-12-29T00:20:34;22.70;59.30
909;DHT22;441;51.192;6.788;2022-12-29T00:23:19;22.60;59.30
909;DHT22;441;51.192;6.788;2022-12-29T00:26:03;22.60;59.40
909;DHT22;441;51.192;6.788;2022-12-29T00:28:48;22.50;59.50
909;DHT22;441;51.192;6.788;2022-12-29T00:31:33;22.50;59.60
909;DHT22;441;51.192;6.788;2022-12-29T00:34:19;22.40;59.60
909;DHT22;441;51.192;6.788;2022-12-29T00:37:03;22.40;59.70
909;DHT22;441;51.192;6.788;2022-12-29T00:39:30;22.40;60.50
909;DHT22;441;51.192;6.788;2022-12-29T00:42:14;22.40;59.90
909;DHT22;441;51.192;6.788;2022-12-29T00:44:58;22.30;59.80
909;DHT22;441;51.192;6.788;2022-12-29T00:47:24;22.30;59.90
909;DHT22;441;51.192;6.788;2022-12-29T00:49:53;22.20;59.90
909;DHT22;441;51.192;6.788;2022-12-29T00:52:18;22.20;60.00
909;DHT22;441;51.192;6.788;2022-12-29T00:54:45;22.20;60.00
909;DHT22;441;51.192;6.788;2022-12-29T00:57:12;22.20;60.00
909;DHT22;441;51.192;6.788;2022-12-29T00:59:40;22.20;60.00
909;DHT22;441;51.192;6.788;2022-12-29T01:02:08;22.10;60.00
909;DHT22;441;51.192;6.788;2022-12-29T01:04:36;22.10;60.00
909;DHT22;441;51.192;6.788;2022-12-29T01:07:04;22.10;60.00
909;DHT22;441;51.192;6.788;2022-12-29T01:09:31;22.10;60.00
909;DHT22;441;51.192;6.788;2022-12-29T01:12:15;22.00;60.00
909;DHT22;441;51.192;6.788;2022-12-29T01:15:03;22.00;60.00
909;DHT22;441;51.192;6.788;2022-12-29T01:17:30;22.00;60.00
909;DHT22;441;51.192;6.788;2022-12-29T01:19:56;22.00;60.00
909;DHT22;441;51.192;6.788;2022-12-29T01:22:25;22.00;60.00
909;DHT22;441;51.192;6.788;2022-12-29T01:24:51;22.00;60.00
909;DHT22;441;51.192;6.788;2022-12-29T01:27:18;21.90;60.20
909;DHT22;441;51.192;6.788;2022-12-29T01:29:45;21.90;60.40
909;DHT22;441;51.192;6.788;2022-12-29T01:32:12;21.90;60.60
909;DHT22;441;51.192;6.788;2022-12-29T01:34:39;21.90;60.60
909;DHT22;441;51.192;6.788;2022-12-29T01:37:05;21.90;60.40
909;DHT22;441;51.192;6.788;2022-12-29T01:39:33;21.90;60.50
909;DHT22;441;51.192;6.788;2022-12-29T01:42:00;21.90;60.60
909;DHT22;441;51.192;6.788;2022-12-29T01:44:50;21.80;60.60
909;DHT22;441;51.192;6.788;2022-12-29T01:47:24;21.80;60.60
909;DHT22;441;51.192;6.788;2022-12-29T01:49:54;21.80;60.60
909;DHT22;441;51.192;6.788;2022-12-29T01:52:22;21.80;60.60
909;DHT22;441;51.192;6.788;2022-12-29T01:54:53;21.80;60.50
909;DHT22;441;51.192;6.788;2022-12-29T01:57:25;21.80;60.60
909;DHT22;441;51.192;6.788;2022-12-29T01:59:55;21.80;60.50
909;DHT22;441;51.192;6.788;2022-12-29T02:02:23;21.80;60.50
909;DHT22;441;51.192;6.788;2022-12-29T02:04:52;21.70;60.40
909;DHT22;441;51.192;6.788;2022-12-29T02:07:22;21.70;60.60
909;DHT22;441;51.192;6.788;2022-12-29T02:09:53;21.70;61.20
909;DHT22;441;51.192;6.788;2022-12-29T02:12:21;21.70;60.40
909;DHT22;441;51.192;6.788;2022-12-29T02:14:54;21.70;60.30
909;DHT22;441;51.192;6.788;2022-12-29T02:17:33;21.70;60.20
909;DHT22;441;51.192;6.788;2022-12-29T02:23:16;21.60;60.00
909;DHT22;441;51.192;6.788;2022-12-29T02:26:03;21.70;60.20
909;DHT22;441;51.192;6.788;2022-12-29T02:29:01;21.60;60.20
909;DHT22;441;51.192;6.788;2022-12-29T02:31:39;21.60;60.40
909;DHT22;441;51.192;6.788;2022-12-29T02:34:19;21.60;60.50
909;DHT22;441;51.192;6.788;2022-12-29T02:36:58;21.60;60.60
909;DHT22;441;51.192;6.788;2022-12-29T02:39:32;21.60;61.40
909;DHT22;441;51.192;6.788;2022-12-29T02:42:08;21.60;60.70
909;DHT22;441;51.192;6.788;2022-12-29T02:44:45;21.60;60.60
909;DHT22;441;51.192;6.788;2022-12-29T02:47:23;21.50;60.50
909;DHT22;441;51.192;6.788;2022-12-29T02:49:57;21.50;60.50
909;DHT22;441;51.192;6.788;2022-12-29T02:52:30;21.60;60.60
909;DHT22;441;51.192;6.788;2022-12-29T02:54:59;21.50;60.50
909;DHT22;441;51.192;6.788;2022-12-29T02:57:31;21.50;60.40
909;DHT22;441;51.192;6.788;2022-12-29T03:00:02;21.50;60.50
909;DHT22;441;51.192;6.788;2022-12-29T03:03:00;21.50;60.50
909;DHT22;441;51.192;6.788;2022-12-29T03:05:46;21.50;60.50
909;DHT22;441;51.192;6.788;2022-12-29T03:08:21;21.50;60.40
909;DHT22;441;51.192;6.788;2022-12-29T03:10:57;21.50;60.40
909;DHT22;441;51.192;6.788;2022-12-29T03:13:29;21.50;60.40
909;DHT22;441;51.192;6.788;2022-12-29T03:16:20;21.50;60.40
909;DHT22;441;51.192;6.788;2022-12-29T03:18:56;21.50;60.40
909;DHT22;441;51.192;6.788;2022-12-29T03:21:30;21.50;60.40
909;DHT22;441;51.192;6.788;2022-12-29T03:24:12;21.50;60.40
909;DHT22;441;51.192;6.788;2022-12-29T03:26:40;21.40;60.30
909;DHT22;441;51.192;6.788;2022-12-29T03:29:08;21.40;60.30
909;DHT22;441;51.192;6.788;2022-12-29T03:31:37;21.40;61.10
909;DHT22;441;51.192;6.788;2022-12-29T03:34:07;21.40;60.30
909;DHT22;441;51.192;6.788;2022-12-29T03:36:40;21.40;60.40
909;DHT22;441;51.192;6.788;2022-12-29T03:39:10;21.40;60.60
909;DHT22;441;51.192;6.788;2022-12-29T03:41:40;21.40;60.70
909;DHT22;441;51.192;6.788;2022-12-29T03:44:10;21.40;60.70
909;DHT22;441;51.192;6.788;2022-12-29T03:46:37;21.40;60.70
909;DHT22;441;51.192;6.788;2022-12-29T03:49:05;21.40;60.70
909;DHT22;441;51.192;6.788;2022-12-29T03:51:32;21.40;60.70
909;DHT22;441;51.192;6.788;2022-12-29T03:53:59;21.40;60.80
909;DHT22;441;51.192;6.788;2022-12-29T03:56:26;21.40;60.80
909;DHT22;441;51.192;6.788;2022-12-29T03:58:53;21.40;60.80
909;DHT22;441;51.192;6.788;2022-12-29T04:01:19;21.40;60.70
909;DHT22;441;51.192;6.788;2022-12-29T04:03:46;21.40;60.70
909;DHT22;441;51.192;6.788;2022-12-29T04:06:14;21.40;60.70
909;DHT22;441;51.192;6.788;2022-12-29T04:08:41;21.30;60.60
909;DHT22;441;51.192;6.788;2022-12-29T04:11:08;21.40;60.90
909;DHT22;441;51.192;6.788;2022-12-29T04:13:35;21.40;61.00
909;DHT22;441;51.192;6.788;2022-12-29T04:16:03;21.40;61.00
909;DHT22;441;51.192;6.788;2022-12-29T04:18:30;21.40;61.10
909;DHT22;441;51.192;6.788;2022-12-29T04:20:57;21.40;61.00
909;DHT22;441;51.192;6.788;2022-12-29T04:23:30;21.40;61.00
909;DHT22;441;51.192;6.788;2022-12-29T04:25:57;21.40;61.00
909;DHT22;441;51.192;6.788;2022-12-29T04:28:24;21.40;61.00
909;DHT22;441;51.192;6.788;2022-12-29T04:30:51;21.40;60.80
909;DHT22;441;51.192;6.788;2022-12-29T04:33:18;21.40;61.00
909;DHT22;441;51.192;6.788;2022-12-29T04:35:45;21.40;61.00
909;DHT22;441;51.192;6.788;2022-12-29T04:38:12;21.40;60.90
909;DHT22;441;51.192;6.788;2022-12-29T04:40:41;21.50;61.10
909;DHT22;441;51.192;6.788;2022-12-29T04:43:09;21.40;60.90
909;DHT22;441;51.192;6.788;2022-12-29T04:45:36;21.40;60.80
909;DHT22;441;51.192;6.788;2022-12-29T04:48:04;21.40;60.80
909;DHT22;441;51.192;6.788;2022-12-29T04:50:31;21.40;60.80
909;DHT22;441;51.192;6.788;2022-12-29T04:52:58;21.40;60.70
909;DHT22;441;51.192;6.788;2022-12-29T04:55:24;21.50;60.80
909;DHT22;441;51.192;6.788;2022-12-29T04:57:53;21.40;60.60
909;DHT22;441;51.192;6.788;2022-12-29T05:00:20;21.40;60.70
909;DHT22;441;51.192;6.788;2022-12-29T05:02:47;21.40;60.60
909;DHT22;441;51.192;6.788;2022-12-29T05:05:14;21.40;60.70
909;DHT22;441;51.192;6.788;2022-12-29T05:07:41;21.50;60.70
909;DHT22;441;51.192;6.788;2022-12-29T05:10:08;21.50;60.60
909;DHT22;441;51.192;6.788;2022-12-29T05:12:36;21.40;60.50
909;DHT22;441;51.192;6.788;2022-12-29T05:15:08;21.40;60.40
909;DHT22;441;51.192;6.788;2022-12-29T05:17:35;21.50;60.50
909;DHT22;441;51.192;6.788;2022-12-29T05:20:03;21.50;60.40
909;DHT22;441;51.192;6.788;2022-12-29T05:22:29;21.50;60.40
909;DHT22;441;51.192;6.788;2022-12-29T05:24:56;21.50;60.30
909;DHT22;441;51.192;6.788;2022-12-29T05:27:23;21.50;60.40
909;DHT22;441;51.192;6.788;2022-12-29T05:29:50;21.50;60.40
909;DHT22;441;51.192;6.788;2022-12-29T05:32:18;21.50;60.30
909;DHT22;441;51.192;6.788;2022-12-29T05:34:45;21.50;60.30
909;DHT22;441;51.192;6.788;2022-12-29T05:37:12;21.50;60.20
909;DHT22;441;51.192;6.788;2022-12-29T05:39:39;21.50;60.20
909;DHT22;441;51.192;6.788;2022-12-29T05:42:06;21.50;61.00
909;DHT22;441;51.192;6.788;2022-12-29T05:44:33;21.50;60.40
909;DHT22;441;51.192;6.788;2022-12-29T05:46:59;21.40;60.40
909;DHT22;441;51.192;6.788;2022-12-29T05:49:28;21.50;60.50
909;DHT22;441;51.192;6.788;2022-12-29T05:51:54;21.50;60.50
909;DHT22;441;51.192;6.788;2022-12-29T05:54:21;21.50;60.50
909;DHT22;441;51.192;6.788;2022-12-29T05:56:48;21.40;60.40
909;DHT22;441;51.192;6.788;2022-12-29T05:59:15;21.50;60.50
909;DHT22;441;51.192;6.788;2022-12-29T06:01:42;21.50;60.50
909;DHT22;441;51.192;6.788;2022-12-29T06:04:08;21.50;60.40
909;DHT22;441;51.192;6.788;2022-12-29T06:06:37;21.50;60.40
909;DHT22;441;51.192;6.788;2022-12-29T06:09:04;21.50;60.40
909;DHT22;441;51.192;6.788;2022-12-29T06:11:31;21.50;60.50
909;DHT22;441;51.192;6.788;2022-12-29T06:13:57;21.50;60.30
909;DHT22;441;51.192;6.788;2022-12-29T06:16:24;21.50;60.40
909;DHT22;441;51.192;6.788;2022-12-29T06:18:51;21.50;60.30
909;DHT22;441;51.192;6.788;2022-12-29T06:21:18;21.50;60.30
909;DHT22;441;51.192;6.788;2022-12-29T06:23:46;21.50;60.30
909;DHT22;441;51.192;6.788;2022-12-29T06:26:13;21.50;60.40
909;DHT22;441;51.192;6.788;2022-12-29T06:28:40;21.50;60.30
909;DHT22;441;51.192;6.788;2022-12-29T06:31:09;21.50;61.30
909;DHT22;441;51.192;6.788;2022-12-29T06:33:36;21.50;61.50
909;DHT22;441;51.192;6.788;2022-12-29T06:36:03;21.50;60.60
909;DHT22;441;51.192;6.788;2022-12-29T06:38:30;21.50;60.70
909;DHT22;441;51.192;6.788;2022-12-29T06:40:58;21.50;60.70
909;DHT22;441;51.192;6.788;2022-12-29T06:43:25;21.50;60.70
909;DHT22;441;51.192;6.788;2022-12-29T06:45:52;21.40;60.70
909;DHT22;441;51.192;6.788;2022-12-29T06:48:19;21.50;60.80
909;DHT22;441;51.192;6.788;2022-12-29T06:50:46;21.50;61.50
909;DHT22;441;51.192;6.788;2022-12-29T06:53:12;21.50;60.80
909;DHT22;441;51.192;6.788;2022-12-29T06:55:40;21.40;60.60
909;DHT22;441;51.192;6.788;2022-12-29T06:58:09;21.50;60.60
909;DHT22;441;51.192;6.788;2022-12-29T07:00:35;21.50;60.50
909;DHT22;441;51.192;6.788;2022-12-29T07:03:02;21.50;60.50
909;DHT22;441;51.192;6.788;2022-12-29T07:05:29;21.50;60.50
909;DHT22;441;51.192;6.788;2022-12-29T07:07:58;21.40;60.40
909;DHT22;441;51.192;6.788;2022-12-29T07:10:25;21.50;60.50
909;DHT22;441;51.192;6.788;2022-12-29T07:12:52;21.50;60.50
909;DHT22;441;51.192;6.788;2022-12-29T07:15:20;21.50;60.60
909;DHT22;441;51.192;6.788;2022-12-29T07:17:47;21.50;60.70
909;DHT22;441;51.192;6.788;2022-12-29T07:20:15;21.50;60.80
909;DHT22;441;51.192;6.788;2022-12-29T07:22:42;21.50;60.80
909;DHT22;441;51.192;6.788;2022-12-29T07:25:08;21.50;60.80
909;DHT22;441;51.192;6.788;2022-12-29T07:27:35;21.50;60.90
909;DHT22;441;51.192;6.788;2022-12-29T07:30:03;21.50;60.80
909;DHT22;441;51.192;6.788;2022-12-29T07:32:33;21.50;60.70
909;DHT22;441;51.192;6.788;2022-12-29T07:35:00;21.50;60.70
909;DHT22;441;51.192;6.788;2022-12-29T07:37:27;21.50;60.70
909;DHT22;441;51.192;6.788;2022-12-29T07:39:54;21.50;60.60
909;DHT22;441;51.192;6.788;2022-12-29T07:42:21;21.50;60.60
909;DHT22;441;51.192;6.788;2022-12-29T07:44:48;21.50;60.60
909;DHT22;441;51.192;6.788;2022-12-29T07:47:14;21.50;60.60
909;DHT22;441;51.192;6.788;2022-12-29T07:49:43;21.50;60.50
909;DHT22;441;51.192;6.788;2022-12-29T07:52:09;21.50;60.60
909;DHT22;441;51.192;6.788;2022-12-29T07:54:36;21.50;60.50
909;DHT22;441;51.192;6.788;2022-12-29T07:57:03;21.50;60.50
909;DHT22;441;51.192;6.788;2022-12-29T07:59:31;21.50;60.40
909;DHT22;441;51.192;6.788;2022-12-29T08:01:58;21.50;60.50
909;DHT22;441;51.192;6.788;2022-12-29T08:04:25;21.40;60.50
909;DHT22;441;51.192;6.788;2022-12-29T08:06:53;21.50;60.60
909;DHT22;441;51.192;6.788;2022-12-29T08:09:20;21.50;60.80
909;DHT22;441;51.192;6.788;2022-12-29T08:11:46;21.50;60.90
909;DHT22;441;51.192;6.788;2022-12-29T08:14:13;21.50;61.40
909;DHT22;441;51.192;6.788;2022-12-29T08:16:40;21.50;61.30
909;DHT22;441;51.192;6.788;2022-12-29T08:19:07;21.50;61.40
909;DHT22;441;51.192;6.788;2022-12-29T08:21:33;21.40;61.20
909;DHT22;441;51.192;6.788;2022-12-29T08:24:02;21.40;61.10
909;DHT22;441;51.192;6.788;2022-12-29T08:26:29;21.50;61.30
909;DHT22;441;51.192;6.788;2022-12-29T08:28:56;21.40;61.20
909;DHT22;441;51.192;6.788;2022-12-29T08:31:23;21.40;61.20
909;DHT22;441;51.192;6.788;2022-12-29T08:33:50;21.50;61.60
909;DHT22;441;51.192;6.788;2022-12-29T08:36:17;21.50;61.70
909;DHT22;441;51.192;6.788;2022-12-29T08:38:43;21.50;61.60
909;DHT22;441;51.192;6.788;2022-12-29T08:41:12;21.60;61.60
909;DHT22;441;51.192;6.788;2022-12-29T08:43:39;21.70;62.30
909;DHT22;441;51.192;6.788;2022-12-29T08:46:05;21.80;62.40
909;DHT22;441;51.192;6.788;2022-12-29T08:48:32;21.80;62.10
909;DHT22;441;51.192;6.788;2022-12-29T08:50:59;21.90;61.50
909;DHT22;441;51.192;6.788;2022-12-29T08:53:26;22.00;60.80
909;DHT22;441;51.192;6.788;2022-12-29T08:55:56;22.00;60.30
909;DHT22;441;51.192;6.788;2022-12-29T08:58:25;22.10;60.10
909;DHT22;441;51.192;6.788;2022-12-29T09:00:53;22.10;60.20
909;DHT22;441;51.192;6.788;2022-12-29T09:03:20;22.10;60.20
909;DHT22;441;51.192;6.788;2022-12-29T09:05:48;22.20;60.60
909;DHT22;441;51.192;6.788;2022-12-29T09:08:16;22.20;60.50
909;DHT22;441;51.192;6.788;2022-12-29T09:10:43;22.30;60.40
909;DHT22;441;51.192;6.788;2022-12-29T09:13:10;22.30;60.40
909;DHT22;441;51.192;6.788;2022-12-29T09:15:39;22.30;60.50
909;DHT22;441;51.192;6.788;2022-12-29T09:18:06;22.40;60.60
909;DHT22;441;51.192;6.788;2022-12-29T09:20:34;22.40;60.60
909;DHT22;441;51.192;6.788;2022-12-29T09:23:00;22.50;60.20
909;DHT22;441;51.192;6.788;2022-12-29T09:25:28;22.50;59.90
909;DHT22;441;51.192;6.788;2022-12-29T09:27:55;22.40;59.60
909;DHT22;441;51.192;6.788;2022-12-29T09:30:22;22.50;59.50
909;DHT22;441;51.192;6.788;2022-12-29T09:32:51;22.50;59.40
909;DHT22;441;51.192;6.788;2022-12-29T09:35:18;22.50;63.50
909;DHT22;441;51.192;6.788;2022-12-29T09:37:44;22.60;60.30
909;DHT22;441;51.192;6.788;2022-12-29T09:40:23;22.60;60.30
909;DHT22;441;51.192;6.788;2022-12-29T09:43:17;22.70;59.40
909;DHT22;441;51.192;6.788;2022-12-29T09:45:52;22.70;59.20
909;DHT22;441;51.192;6.788;2022-12-29T09:48:25;22.70;59.00
909;DHT22;441;51.192;6.788;2022-12-29T09:50:56;22.80;58.90
909;DHT22;441;51.192;6.788;2022-12-29T09:53:28;22.80;58.80
909;DHT22;441;51.192;6.788;2022-12-29T09:55:59;22.80;58.60
909;DHT22;441;51.192;6.788;2022-12-29T09:58:30;22.90;58.60
909;DHT22;441;51.192;6.788;2022-12-29T10:01:02;22.90;58.50
909;DHT22;441;51.192;6.788;2022-12-29T10:03:41;22.90;58.30
909;DHT22;441;51.192;6.788;2022-12-29T10:06:15;22.90;58.30
909;DHT22;441;51.192;6.788;2022-12-29T10:08:47;22.90;58.30
909;DHT22;441;51.192;6.788;2022-12-29T10:11:24;23.00;59.50
909;DHT22;441;51.192;6.788;2022-12-29T10:14:10;23.00;59.00
909;DHT22;441;51.192;6.788;2022-12-29T10:16:46;23.00;58.70
909;DHT22;441;51.192;6.788;2022-12-29T10:19:36;23.10;59.20
909;DHT22;441;51.192;6.788;2022-12-29T10:22:13;23.00;58.20
909;DHT22;441;51.192;6.788;2022-12-29T10:24:45;23.00;58.20
909;DHT22;441;51.192;6.788;2022-12-29T10:27:13;23.00;59.00
909;DHT22;441;51.192;6.788;2022-12-29T10:29:46;22.90;58.20
909;DHT22;441;51.192;6.788;2022-12-29T10:32:23;22.90;58.00
909;DHT22;441;51.192;6.788;2022-12-29T10:34:54;22.90;57.80
909;DHT22;441;51.192;6.788;2022-12-29T10:37:29;22.90;57.70
909;DHT22;441;51.192;6.788;2022-12-29T10:39:58;22.80;57.50
909;DHT22;441;51.192;6.788;2022-12-29T10:42:27;22.80;57.40
909;DHT22;441;51.192;6.788;2022-12-29T10:44:54;22.80;57.30
909;DHT22;441;51.192;6.788;2022-12-29T10:47:24;22.80;57.30
909;DHT22;441;51.192;6.788;2022-12-29T10:49:53;22.80;57.10
909;DHT22;441;51.192;6.788;2022-12-29T10:52:21;22.80;57.00
909;DHT22;441;51.192;6.788;2022-12-29T10:54:51;22.80;56.90
909;DHT22;441;51.192;6.788;2022-12-29T10:57:25;22.80;56.70
909;DHT22;441;51.192;6.788;2022-12-29T10:59:52;22.80;56.70
909;DHT22;441;51.192;6.788;2022-12-29T11:02:50;22.70;56.50
909;DHT22;441;51.192;6.788;2022-12-29T11:05:25;22.70;56.50
909;DHT22;441;51.192;6.788;2022-12-29T11:07:59;22.70;56.40
909;DHT22;441;51.192;6.788;2022-12-29T11:10:34;22.70;56.30
909;DHT22;441;51.192;6.788;2022-12-29T11:13:03;22.70;56.10
909;DHT22;441;51.192;6.788;2022-12-29T11:15:39;22.70;56.10
909;DHT22;441;51.192;6.788;2022-12-29T11:18:21;22.70;55.90
909;DHT22;441;51.192;6.788;2022-12-29T11:20:50;22.70;55.80
909;DHT22;441;51.192;6.788;2022-12-29T11:23:26;22.70;55.90
909;DHT22;441;51.192;6.788;2022-12-29T11:26:14;22.70;55.90
909;DHT22;441;51.192;6.788;2022-12-29T11:28:43;22.70;55.80
909;DHT22;441;51.192;6.788;2022-12-29T11:31:10;22.70;55.80
909;DHT22;441;51.192;6.788;2022-12-29T11:33:41;22.70;55.70
909;DHT22;441;51.192;6.788;2022-12-29T11:36:13;22.80;55.50
909;DHT22;441;51.192;6.788;2022-12-29T11:38:42;22.80;55.50
909;DHT22;441;51.192;6.788;2022-12-29T11:41:18;22.80;55.40
909;DHT22;441;51.192;6.788;2022-12-29T11:43:46;22.70;55.20
909;DHT22;441;51.192;6.788;2022-12-29T11:46:16;22.80;55.10
909;DHT22;441;51.192;6.788;2022-12-29T11:48:46;22.80;55.00
909;DHT22;441;51.192;6.788;2022-12-29T11:51:22;22.80;54.90
909;DHT22;441;51.192;6.788;2022-12-29T11:53:51;22.80;54.90
909;DHT22;441;51.192;6.788;2022-12-29T11:56:22;22.80;54.80
909;DHT22;441;51.192;6.788;2022-12-29T11:58:57;22.80;54.70
909;DHT22;441;51.192;6.788;2022-12-29T12:01:30;22.80;54.80
909;DHT22;441;51.192;6.788;2022-12-29T12:04:01;22.80;54.70
909;DHT22;441;51.192;6.788;2022-12-29T12:06:35;22.90;54.70
909;DHT22;441;51.192;6.788;2022-12-29T12:09:05;22.90;54.70
909;DHT22;441;51.192;6.788;2022-12-29T12:11:36;22.90;54.70
909;DHT22;441;51.192;6.788;2022-12-29T12:14:11;22.90;54.60
909;DHT22;441;51.192;6.788;2022-12-29T12:16:42;22.90;54.60
909;DHT22;441;51.192;6.788;2022-12-29T12:19:17;22.90;54.50
909;DHT22;441;51.192;6.788;2022-12-29T12:21:52;22.90;54.50
909;DHT22;441;51.192;6.788;2022-12-29T12:24:44;22.90;54.50
909;DHT22;441;51.192;6.788;2022-12-29T12:27:18;22.90;54.40
909;DHT22;441;51.192;6.788;2022-12-29T12:29:52;22.90;54.30
909;DHT22;441;51.192;6.788;2022-12-29T12:32:24;22.90;54.30
909;DHT22;441;51.192;6.788;2022-12-29T12:34:52;22.90;54.20
909;DHT22;441;51.192;6.788;2022-12-29T12:40:34;22.90;54.10
909;DHT22;441;51.192;6.788;2022-12-29T12:43:18;22.90;54.10
909;DHT22;441;51.192;6.788;2022-12-29T12:45:55;23.00;54.20
909;DHT22;441;51.192;6.788;2022-12-29T12:48:48;22.80;54.60
909;DHT22;441;51.192;6.788;2022-12-29T12:51:29;22.70;55.60
909;DHT22;441;51.192;6.788;2022-12-29T12:54:13;22.70;55.80
909;DHT22;441;51.192;6.788;2022-12-29T12:56:50;22.70;55.90
909;DHT22;441;51.192;6.788;2022-12-29T12:59:33;22.70;56.00
909;DHT22;441;51.192;6.788;2022-12-29T13:02:15;22.80;56.20
909;DHT22;441;51.192;6.788;2022-12-29T13:04:56;22.90;55.60
909;DHT22;441;51.192;6.788;2022-12-29T13:07:32;22.90;55.30
909;DHT22;441;51.192;6.788;2022-12-29T13:10:16;22.90;55.30
909;DHT22;441;51.192;6.788;2022-12-29T13:12:50;23.00;55.40
909;DHT22;441;51.192;6.788;2022-12-29T13:15:32;23.00;56.00
909;DHT22;441;51.192;6.788;2022-12-29T13:18:11;22.90;56.10
909;DHT22;441;51.192;6.788;2022-12-29T13:20:46;22.90;56.10
909;DHT22;441;51.192;6.788;2022-12-29T13:23:19;22.90;56.00
909;DHT22;441;51.192;6.788;2022-12-29T13:25:59;22.90;56.10
909;DHT22;441;51.192;6.788;2022-12-29T13:28:36;22.90;55.70
909;DHT22;441;51.192;6.788;2022-12-29T13:31:11;22.80;55.50
909;DHT22;441;51.192;6.788;2022-12-29T13:33:49;22.80;55.60
909;DHT22;441;51.192;6.788;2022-12-29T13:36:22;22.80;55.80
909;DHT22;441;51.192;6.788;2022-12-29T13:38:54;22.80;56.20
909;DHT22;441;51.192;6.788;2022-12-29T13:41:31;22.80;56.20
909;DHT22;441;51.192;6.788;2022-12-29T13:44:00;22.70;56.10
909;DHT22;441;51.192;6.788;2022-12-29T13:46:31;22.80;56.10
909;DHT22;441;51.192;6.788;2022-12-29T13:49:02;22.80;56.60
909;DHT22;441;51.192;6.788;2022-12-29T13:51:32;22.80;56.00
909;DHT22;441;51.192;6.788;2022-12-29T13:54:12;22.80;56.00
909;DHT22;441;51.192;6.788;2022-12-29T13:56:49;22.80;55.70
909;DHT22;441;51.192;6.788;2022-12-29T13:59:22;22.80;56.00
909;DHT22;441;51.192;6.788;2022-12-29T14:01:55;22.70;55.90
909;DHT22;441;51.192;6.788;2022-12-29T14:04:27;22.70;55.70
909;DHT22;441;51.192;6.788;2022-12-29T14:07:03;22.70;55.70
909;DHT22;441;51.192;6.788;2022-12-29T14:09:45;22.70;55.70
909;DHT22;441;51.192;6.788;2022-12-29T14:12:27;22.70;55.90
909;DHT22;441;51.192;6.788;2022-12-29T14:15:01;22.60;55.80
909;DHT22;441;51.192;6.788;2022-12-29T14:17:28;22.60;55.70
909;DHT22;441;51.192;6.788;2022-12-29T14:19:55;22.60;56.00
909;DHT22;441;51.192;6.788;2022-12-29T14:22:26;22.50;56.00
909;DHT22;441;51.192;6.788;2022-12-29T14:24:53;22.50;56.20
909;DHT22;441;51.192;6.788;2022-12-29T14:27:44;22.50;56.40
909;DHT22;441;51.192;6.788;2022-12-29T14:33:18;22.50;56.50
909;DHT22;441;51.192;6.788;2022-12-29T14:35:47;22.40;56.20
909;DHT22;441;51.192;6.788;2022-12-29T14:38:32;22.40;56.10
909;DHT22;441;51.192;6.788;2022-12-29T14:41:25;22.40;56.20
909;DHT22;441;51.192;6.788;2022-12-29T14:44:09;22.40;56.20
909;DHT22;441;51.192;6.788;2022-12-29T14:46:54;22.50;56.40
909;DHT22;441;51.192;6.788;2022-12-29T14:49:24;22.60;56.10
909;DHT22;441;51.192;6.788;2022-12-29T14:51:53;22.60;56.20
909;DHT22;441;51.192;6.788;2022-12-29T14:54:42;22.60;56.50
909;DHT22;441;51.192;6.788;2022-12-29T14:57:15;22.60;56.50
909;DHT22;441;51.192;6.788;2022-12-29T14:59:44;22.50;56.70
909;DHT22;441;51.192;6.788;2022-12-29T15:02:16;22.50;57.00
909;DHT22;441;51.192;6.788;2022-12-29T15:04:46;22.50;56.60
909;DHT22;441;51.192;6.788;2022-12-29T15:07:14;22.50;56.70
909;DHT22;441;51.192;6.788;2022-12-29T15:09:43;22.50;57.00
909;DHT22;441;51.192;6.788;2022-12-29T15:12:20;22.50;56.80
909;DHT22;441;51.192;6.788;2022-12-29T15:14:53;22.60;56.50
909;DHT22;441;51.192;6.788;2022-12-29T15:17:26;22.60;56.20
909;DHT22;441;51.192;6.788;2022-12-29T15:19:53;22.60;56.20
909;DHT22;441;51.192;6.788;2022-12-29T15:22:21;22.60;56.30
909;DHT22;441;51.192;6.788;2022-12-29T15:24:50;22.50;56.20
909;DHT22;441;51.192;6.788;2022-12-29T15:27:21;22.50;56.20
909;DHT22;441;51.192;6.788;2022-12-29T15:29:48;22.50;56.40
909;DHT22;441;51.192;6.788;2022-12-29T15:32:24;22.40;56.80
909;DHT22;441;51.192;6.788;2022-12-29T15:34:53;22.40;57.10
909;DHT22;441;51.192;6.788;2022-12-29T15:37:23;22.40;57.00
909;DHT22;441;51.192;6.788;2022-12-29T15:39:50;22.40;57.20
909;DHT22;441;51.192;6.788;2022-12-29T15:42:29;22.40;57.30
909;DHT22;441;51.192;6.788;2022-12-29T15:44:58;22.30;57.00
909;DHT22;441;51.192;6.788;2022-12-29T15:47:30;22.40;57.40
909;DHT22;441;51.192;6.788;2022-12-29T15:50:02;22.40;57.30
909;DHT22;441;51.192;6.788;2022-12-29T15:52:32;22.40;57.20
909;DHT22;441;51.192;6.788;2022-12-29T15:55:00;22.30;57.00
909;DHT22;441;51.192;6.788;2022-12-29T15:57:29;22.30;57.30
909;DHT22;441;51.192;6.788;2022-12-29T15:59:57;22.30;57.00
909;DHT22;441;51.192;6.788;2022-12-29T16:02:25;22.30;57.20
909;DHT22;441;51.192;6.788;2022-12-29T16:04:54;22.40;57.60
909;DHT22;441;51.192;6.788;2022-12-29T16:07:25;22.40;57.00
909;DHT22;441;51.192;6.788;2022-12-29T16:09:55;22.30;57.00
909;DHT22;441;51.192;6.788;2022-12-29T16:12:24;22.30;57.10
909;DHT22;441;51.192;6.788;2022-12-29T16:14:55;22.30;57.20
909;DHT22;441;51.192;6.788;2022-12-29T16:17:25;22.30;57.20
909;DHT22;441;51.192;6.788;2022-12-29T16:19:57;22.30;57.30
909;DHT22;441;51.192;6.788;2022-12-29T16:22:28;22.30;57.20
909;DHT22;441;51.192;6.788;2022-12-29T16:24:57;22.30;57.10
909;DHT22;441;51.192;6.788;2022-12-29T16:27:31;22.30;57.30
909;DHT22;441;51.192;6.788;2022-12-29T16:30:04;22.20;57.10
909;DHT22;441;51.192;6.788;2022-12-29T16:32:32;22.20;57.30
909;DHT22;441;51.192;6.788;2022-12-29T16:35:11;22.20;57.30
909;DHT22;441;51.192;6.788;2022-12-29T16:37:38;22.10;57.40
909;DHT22;441;51.192;6.788;2022-12-29T16:40:27;22.10;57.30
909;DHT22;441;51.192;6.788;2022-12-29T16:42:56;22.10;57.30
909;DHT22;441;51.192;6.788;2022-12-29T16:48:26;22.10;57.40
909;DHT22;441;51.192;6.788;2022-12-29T16:51:01;22.10;57.50
909;DHT22;441;51.192;6.788;2022-12-29T16:53:32;22.10;57.60
909;DHT22;441;51.192;6.788;2022-12-29T16:56:03;22.20;57.50
909;DHT22;441;51.192;6.788;2022-12-29T16:58:32;22.10;57.40
909;DHT22;441;51.192;6.788;2022-12-29T17:01:03;22.10;57.40
909;DHT22;441;51.192;6.788;2022-12-29T17:03:34;22.10;57.50
909;DHT22;441;51.192;6.788;2022-12-29T17:06:08;22.10;57.50
909;DHT22;441;51.192;6.788;2022-12-29T17:08:41;22.10;57.40
909;DHT22;441;51.192;6.788;2022-12-29T17:11:20;22.20;57.80
909;DHT22;441;51.192;6.788;2022-12-29T17:14:05;22.20;57.60